Huvudsida
METAR-TAF:

METAR-TAF

Flygplatser :

Jeddah, Saudiarabien

latitud: 21-42N, longitud: 039-11E, höjd: 15 m

Aktuellt väderrapport

Denna rapport gjordes för 53 minuter sedan, klockan 16:00 UTC
Vind 6 kt från väst/sydväst
Temperatur 31°C
Fuktighet 66%
Tryck 1010 hPa
Sikt 10 km eller mer
Inga moln under 1 500 m eller inga cumulonimbus

METAR: OEJN 181600Z 24006KT CAVOK 31/24 Q1010 NOSIG

Tid: 19:53 (16:53 UTC)

Väderprognos

Denna rapport gjordes för 5 timmar och 53 minuter sedan, klockan 11:00 UTC
Prognos gäller från 18 kl. 12 UTC till 19 kl. 18 UTC
Vind 14 kt från nordväst
Sikt: 7000 m
Få moln på en höjd av 4000 ft
Blir
från 18 kl. 16 UTC till 18 kl. 18 UTC
Vind 10 kt från ost/nordost

TAF: OEJN 181100Z 1812/1918 32014KT 7000 FEW040 BECMG 1816/1818 06010KT

Aktuella väderrapporter och prognoser från 4000 flygplatser (METAR- och TAF-rapporter).

De tillgängliga stationerna syns som gula och röda prickar på kartan.

För musen över prickarna för att se namnen på stationerna.

Klicka sedan för att få väderrapporter och prognoser.

För att ändra kartan: Klicka på de gröna knapparna med ett svart kors på för att zooma in; den gröna knappen med ett streck på för att zooma ut; eller på de gröna pilarna för angränsande kartor.


METAR-TAF: